Terminal Aerodrome Forecast
Issued by NWS

Home | Current Version | Previous Version | Text Only | Print | Product List | Glossary On
Versions: 1 2 3 4 5 6 7 8 9 10 11 12 13
477
FTUS46 KEKA 081723
TAFUKI
TAF
KUKI 081723Z 0818/0918 00000KT P6SM SKC
     FM082000 18005KT P6SM SKC
     FM090300 00000KT P6SM SKC=

USA.gov is the U.S. government's official web portal to all federal, state and local government web resources and services.